sensor_id;sensor_type;location;lat;lon;timestamp;temperature;humidity
69731;SHT31;56996;48.138;11.538;2023-07-31T00:01:39;18.86;57.32
69731;SHT31;56996;48.138;11.538;2023-07-31T00:04:06;18.81;57.33
69731;SHT31;56996;48.138;11.538;2023-07-31T00:06:33;18.76;57.57
69731;SHT31;56996;48.138;11.538;2023-07-31T00:08:59;18.70;57.71
69731;SHT31;56996;48.138;11.538;2023-07-31T00:11:26;18.65;57.84
69731;SHT31;56996;48.138;11.538;2023-07-31T00:13:53;18.59;58.09
69731;SHT31;56996;48.138;11.538;2023-07-31T00:16:20;18.55;58.25
69731;SHT31;56996;48.138;11.538;2023-07-31T00:18:47;18.51;58.43
69731;SHT31;56996;48.138;11.538;2023-07-31T00:21:13;18.50;58.47
69731;SHT31;56996;48.138;11.538;2023-07-31T00:23:40;18.47;58.55
69731;SHT31;56996;48.138;11.538;2023-07-31T00:26:07;18.42;58.72
69731;SHT31;56996;48.138;11.538;2023-07-31T00:28:33;18.41;58.79
69731;SHT31;56996;48.138;11.538;2023-07-31T00:31:00;18.43;58.80
69731;SHT31;56996;48.138;11.538;2023-07-31T00:33:29;18.42;58.83
69731;SHT31;56996;48.138;11.538;2023-07-31T00:35:57;18.42;58.83
69731;SHT31;56996;48.138;11.538;2023-07-31T00:38:25;18.40;58.91
69731;SHT31;56996;48.138;11.538;2023-07-31T00:40:51;18.38;58.95
69731;SHT31;56996;48.138;11.538;2023-07-31T00:43:18;18.33;59.04
69731;SHT31;56996;48.138;11.538;2023-07-31T00:45:45;18.29;59.20
69731;SHT31;56996;48.138;11.538;2023-07-31T00:48:12;18.27;59.28
69731;SHT31;56996;48.138;11.538;2023-07-31T00:50:39;18.26;59.31
69731;SHT31;56996;48.138;11.538;2023-07-31T00:53:06;18.24;59.42
69731;SHT31;56996;48.138;11.538;2023-07-31T00:55:33;18.20;59.48
69731;SHT31;56996;48.138;11.538;2023-07-31T00:58:00;18.19;59.53
69731;SHT31;56996;48.138;11.538;2023-07-31T01:00:26;18.17;59.70
69731;SHT31;56996;48.138;11.538;2023-07-31T01:02:53;18.15;59.72
69731;SHT31;56996;48.138;11.538;2023-07-31T01:05:22;18.13;59.53
69731;SHT31;56996;48.138;11.538;2023-07-31T01:08:12;18.14;59.51
69731;SHT31;56996;48.138;11.538;2023-07-31T01:10:56;18.14;59.50
69731;SHT31;56996;48.138;11.538;2023-07-31T01:13:31;18.14;59.52
69731;SHT31;56996;48.138;11.538;2023-07-31T01:15:58;18.15;59.36
69731;SHT31;56996;48.138;11.538;2023-07-31T01:18:26;18.14;59.42
69731;SHT31;56996;48.138;11.538;2023-07-31T01:20:58;18.14;59.44
69731;SHT31;56996;48.138;11.538;2023-07-31T01:24:22;18.14;59.24
69731;SHT31;56996;48.138;11.538;2023-07-31T01:27:17;18.16;59.03
69731;SHT31;56996;48.138;11.538;2023-07-31T01:30:00;18.18;59.00
69731;SHT31;56996;48.138;11.538;2023-07-31T01:32:43;18.17;58.83
69731;SHT31;56996;48.138;11.538;2023-07-31T01:35:14;18.14;58.90
69731;SHT31;56996;48.138;11.538;2023-07-31T01:37:41;18.14;58.99
69731;SHT31;56996;48.138;11.538;2023-07-31T01:40:08;18.14;59.07
69731;SHT31;56996;48.138;11.538;2023-07-31T01:42:35;18.14;59.16
69731;SHT31;56996;48.138;11.538;2023-07-31T01:45:02;18.13;59.24
69731;SHT31;56996;48.138;11.538;2023-07-31T01:47:29;18.12;59.32
69731;SHT31;56996;48.138;11.538;2023-07-31T01:49:55;18.11;59.36
69731;SHT31;56996;48.138;11.538;2023-07-31T01:52:22;18.10;59.48
69731;SHT31;56996;48.138;11.538;2023-07-31T01:54:49;18.11;59.51
69731;SHT31;56996;48.138;11.538;2023-07-31T01:57:15;18.14;59.53
69731;SHT31;56996;48.138;11.538;2023-07-31T01:59:42;18.14;59.55
69731;SHT31;56996;48.138;11.538;2023-07-31T02:02:09;18.16;59.60
69731;SHT31;56996;48.138;11.538;2023-07-31T02:04:35;18.18;59.52
69731;SHT31;56996;48.138;11.538;2023-07-31T02:07:02;18.21;59.54
69731;SHT31;56996;48.138;11.538;2023-07-31T02:09:29;18.23;59.49
69731;SHT31;56996;48.138;11.538;2023-07-31T02:11:58;18.25;59.55
69731;SHT31;56996;48.138;11.538;2023-07-31T02:14:24;18.25;59.60
69731;SHT31;56996;48.138;11.538;2023-07-31T02:16:51;18.25;59.60
69731;SHT31;56996;48.138;11.538;2023-07-31T02:19:18;18.26;59.65
69731;SHT31;56996;48.138;11.538;2023-07-31T02:21:45;18.27;59.70
69731;SHT31;56996;48.138;11.538;2023-07-31T02:24:11;18.29;59.78
69731;SHT31;56996;48.138;11.538;2023-07-31T02:26:38;18.29;59.78
69731;SHT31;56996;48.138;11.538;2023-07-31T02:29:05;18.29;59.82
69731;SHT31;56996;48.138;11.538;2023-07-31T02:31:32;18.30;59.80
69731;SHT31;56996;48.138;11.538;2023-07-31T02:33:59;18.30;59.80
69731;SHT31;56996;48.138;11.538;2023-07-31T02:36:25;18.32;59.89
69731;SHT31;56996;48.138;11.538;2023-07-31T02:38:52;18.34;59.94
69731;SHT31;56996;48.138;11.538;2023-07-31T02:41:19;18.36;59.97
69731;SHT31;56996;48.138;11.538;2023-07-31T02:43:45;18.34;60.07
69731;SHT31;56996;48.138;11.538;2023-07-31T02:46:12;18.33;60.20
69731;SHT31;56996;48.138;11.538;2023-07-31T02:48:40;18.33;60.22
69731;SHT31;56996;48.138;11.538;2023-07-31T02:51:06;18.32;60.27
69731;SHT31;56996;48.138;11.538;2023-07-31T02:53:33;18.29;60.39
69731;SHT31;56996;48.138;11.538;2023-07-31T02:56:00;18.27;60.50
69731;SHT31;56996;48.138;11.538;2023-07-31T02:58:26;18.26;60.60
69731;SHT31;56996;48.138;11.538;2023-07-31T03:00:53;18.22;60.75
69731;SHT31;56996;48.138;11.538;2023-07-31T03:03:20;18.18;60.98
69731;SHT31;56996;48.138;11.538;2023-07-31T03:05:47;18.13;61.14
69731;SHT31;56996;48.138;11.538;2023-07-31T03:08:14;18.08;61.30
69731;SHT31;56996;48.138;11.538;2023-07-31T03:10:41;18.05;61.44
69731;SHT31;56996;48.138;11.538;2023-07-31T03:13:08;18.00;61.57
69731;SHT31;56996;48.138;11.538;2023-07-31T03:15:35;17.96;61.74
69731;SHT31;56996;48.138;11.538;2023-07-31T03:18:02;17.92;61.96
69731;SHT31;56996;48.138;11.538;2023-07-31T03:20:29;17.88;62.16
69731;SHT31;56996;48.138;11.538;2023-07-31T03:22:55;17.85;62.29
69731;SHT31;56996;48.138;11.538;2023-07-31T03:25:22;17.81;62.48
69731;SHT31;56996;48.138;11.538;2023-07-31T03:27:50;17.78;62.67
69731;SHT31;56996;48.138;11.538;2023-07-31T03:30:16;17.75;62.84
69731;SHT31;56996;48.138;11.538;2023-07-31T03:32:43;17.72;62.99
69731;SHT31;56996;48.138;11.538;2023-07-31T03:35:10;17.68;63.15
69731;SHT31;56996;48.138;11.538;2023-07-31T03:37:36;17.66;63.38
69731;SHT31;56996;48.138;11.538;2023-07-31T03:40:05;17.64;63.57
69731;SHT31;56996;48.138;11.538;2023-07-31T03:42:33;17.63;63.69
69731;SHT31;56996;48.138;11.538;2023-07-31T03:45:01;17.64;63.72
69731;SHT31;56996;48.138;11.538;2023-07-31T03:47:28;17.63;63.87
69731;SHT31;56996;48.138;11.538;2023-07-31T03:49:55;17.62;63.98
69731;SHT31;56996;48.138;11.538;2023-07-31T03:52:22;17.60;64.05
69731;SHT31;56996;48.138;11.538;2023-07-31T03:54:48;17.58;64.19
69731;SHT31;56996;48.138;11.538;2023-07-31T03:57:15;17.56;64.31
69731;SHT31;56996;48.138;11.538;2023-07-31T03:59:42;17.55;64.40
69731;SHT31;56996;48.138;11.538;2023-07-31T04:02:09;17.54;64.48
69731;SHT31;56996;48.138;11.538;2023-07-31T04:04:36;17.52;64.56
69731;SHT31;56996;48.138;11.538;2023-07-31T04:07:02;17.51;64.61
69731;SHT31;56996;48.138;11.538;2023-07-31T04:09:29;17.51;64.70
69731;SHT31;56996;48.138;11.538;2023-07-31T04:11:56;17.51;64.81
69731;SHT31;56996;48.138;11.538;2023-07-31T04:14:22;17.50;64.96
69731;SHT31;56996;48.138;11.538;2023-07-31T04:16:50;17.50;65.03
69731;SHT31;56996;48.138;11.538;2023-07-31T04:19:17;17.52;65.03
69731;SHT31;56996;48.138;11.538;2023-07-31T04:21:44;17.51;65.15
69731;SHT31;56996;48.138;11.538;2023-07-31T04:24:10;17.51;65.26
69731;SHT31;56996;48.138;11.538;2023-07-31T04:26:37;17.52;65.37
69731;SHT31;56996;48.138;11.538;2023-07-31T04:29:05;17.51;65.39
69731;SHT31;56996;48.138;11.538;2023-07-31T04:31:31;17.48;65.47
69731;SHT31;56996;48.138;11.538;2023-07-31T04:33:58;17.49;65.58
69731;SHT31;56996;48.138;11.538;2023-07-31T04:36:25;17.49;65.69
69731;SHT31;56996;48.138;11.538;2023-07-31T04:38:52;17.48;65.79
69731;SHT31;56996;48.138;11.538;2023-07-31T04:41:18;17.47;65.87
69731;SHT31;56996;48.138;11.538;2023-07-31T04:43:45;17.47;65.92
69731;SHT31;56996;48.138;11.538;2023-07-31T04:46:12;17.48;66.01
69731;SHT31;56996;48.138;11.538;2023-07-31T04:48:38;17.48;66.07
69731;SHT31;56996;48.138;11.538;2023-07-31T04:51:05;17.50;66.21
69731;SHT31;56996;48.138;11.538;2023-07-31T04:53:32;17.50;66.35
69731;SHT31;56996;48.138;11.538;2023-07-31T04:55:59;17.51;66.48
69731;SHT31;56996;48.138;11.538;2023-07-31T04:58:25;17.54;66.52
69731;SHT31;56996;48.138;11.538;2023-07-31T05:00:52;17.58;66.51
69731;SHT31;56996;48.138;11.538;2023-07-31T05:03:19;17.63;66.44
69731;SHT31;56996;48.138;11.538;2023-07-31T05:05:46;17.69;66.47
69731;SHT31;56996;48.138;11.538;2023-07-31T05:08:12;17.74;66.43
69731;SHT31;56996;48.138;11.538;2023-07-31T05:10:39;17.79;66.41
69731;SHT31;56996;48.138;11.538;2023-07-31T05:13:06;17.85;66.40
69731;SHT31;56996;48.138;11.538;2023-07-31T05:15:32;17.97;66.25
69731;SHT31;56996;48.138;11.538;2023-07-31T05:17:59;18.06;66.07
69731;SHT31;56996;48.138;11.538;2023-07-31T05:20:26;18.15;65.88
69731;SHT31;56996;48.138;11.538;2023-07-31T05:22:54;18.24;65.74
69731;SHT31;56996;48.138;11.538;2023-07-31T05:25:20;18.36;65.46
69731;SHT31;56996;48.138;11.538;2023-07-31T05:27:47;18.46;65.06
69731;SHT31;56996;48.138;11.538;2023-07-31T05:30:14;18.54;64.80
69731;SHT31;56996;48.138;11.538;2023-07-31T05:32:40;18.67;64.54
69731;SHT31;56996;48.138;11.538;2023-07-31T05:35:07;18.86;63.82
69731;SHT31;56996;48.138;11.538;2023-07-31T05:37:35;19.02;63.31
69731;SHT31;56996;48.138;11.538;2023-07-31T05:40:02;19.17;62.76
69731;SHT31;56996;48.138;11.538;2023-07-31T05:42:28;19.31;62.34
69731;SHT31;56996;48.138;11.538;2023-07-31T05:44:55;19.49;61.99
69731;SHT31;56996;48.138;11.538;2023-07-31T05:47:22;19.67;61.45
69731;SHT31;56996;48.138;11.538;2023-07-31T05:49:49;19.81;60.88
69731;SHT31;56996;48.138;11.538;2023-07-31T05:52:19;19.93;60.37
69731;SHT31;56996;48.138;11.538;2023-07-31T05:54:45;20.05;59.90
69731;SHT31;56996;48.138;11.538;2023-07-31T05:57:12;20.14;59.51
69731;SHT31;56996;48.138;11.538;2023-07-31T05:59:39;20.24;59.18
69731;SHT31;56996;48.138;11.538;2023-07-31T06:02:06;20.37;58.92
69731;SHT31;56996;48.138;11.538;2023-07-31T06:04:32;20.51;58.25
69731;SHT31;56996;48.138;11.538;2023-07-31T06:06:59;20.64;57.32
69731;SHT31;56996;48.138;11.538;2023-07-31T06:09:26;21.04;56.33
69731;SHT31;56996;48.138;11.538;2023-07-31T06:11:53;21.66;55.28
69731;SHT31;56996;48.138;11.538;2023-07-31T06:14:20;22.59;53.43
69731;SHT31;56996;48.138;11.538;2023-07-31T06:16:46;23.35;51.67
69731;SHT31;56996;48.138;11.538;2023-07-31T06:19:13;23.91;50.89
69731;SHT31;56996;48.138;11.538;2023-07-31T06:21:40;24.30;50.10
69731;SHT31;56996;48.138;11.538;2023-07-31T06:24:08;24.43;49.40
69731;SHT31;56996;48.138;11.538;2023-07-31T06:26:35;24.45;49.19
69731;SHT31;56996;48.138;11.538;2023-07-31T06:29:01;24.57;48.63
69731;SHT31;56996;48.138;11.538;2023-07-31T06:31:28;24.39;48.11
69731;SHT31;56996;48.138;11.538;2023-07-31T06:33:55;24.07;48.38
69731;SHT31;56996;48.138;11.538;2023-07-31T06:36:22;23.75;49.03
69731;SHT31;56996;48.138;11.538;2023-07-31T06:38:48;23.53;49.28
69731;SHT31;56996;48.138;11.538;2023-07-31T06:41:15;23.46;49.47
69731;SHT31;56996;48.138;11.538;2023-07-31T06:43:42;23.44;49.46
69731;SHT31;56996;48.138;11.538;2023-07-31T06:46:08;23.42;49.26
69731;SHT31;56996;48.138;11.538;2023-07-31T06:48:36;23.38;48.91
69731;SHT31;56996;48.138;11.538;2023-07-31T06:51:04;23.40;49.06
69731;SHT31;56996;48.138;11.538;2023-07-31T06:53:30;23.56;48.93
69731;SHT31;56996;48.138;11.538;2023-07-31T06:55:57;23.71;48.35
69731;SHT31;56996;48.138;11.538;2023-07-31T06:58:24;23.76;48.10
69731;SHT31;56996;48.138;11.538;2023-07-31T07:00:50;23.85;47.66
69731;SHT31;56996;48.138;11.538;2023-07-31T07:03:18;23.82;47.80
69731;SHT31;56996;48.138;11.538;2023-07-31T07:05:45;23.79;47.78
69731;SHT31;56996;48.138;11.538;2023-07-31T07:08:12;23.80;47.65
69731;SHT31;56996;48.138;11.538;2023-07-31T07:10:38;23.70;47.29
69731;SHT31;56996;48.138;11.538;2023-07-31T07:13:05;23.48;47.63
69731;SHT31;56996;48.138;11.538;2023-07-31T07:15:31;23.33;47.91
69731;SHT31;56996;48.138;11.538;2023-07-31T07:17:58;23.37;47.97
69731;SHT31;56996;48.138;11.538;2023-07-31T07:20:25;23.61;47.85
69731;SHT31;56996;48.138;11.538;2023-07-31T07:22:52;23.88;47.48
69731;SHT31;56996;48.138;11.538;2023-07-31T07:25:18;24.15;47.14
69731;SHT31;56996;48.138;11.538;2023-07-31T07:27:45;24.48;46.76
69731;SHT31;56996;48.138;11.538;2023-07-31T07:30:12;24.50;45.97
69731;SHT31;56996;48.138;11.538;2023-07-31T07:32:38;24.26;46.23
69731;SHT31;56996;48.138;11.538;2023-07-31T07:35:05;24.21;46.52
69731;SHT31;56996;48.138;11.538;2023-07-31T07:37:33;24.30;46.34
69731;SHT31;56996;48.138;11.538;2023-07-31T07:40:00;24.58;46.02
69731;SHT31;56996;48.138;11.538;2023-07-31T07:42:26;24.97;45.36
69731;SHT31;56996;48.138;11.538;2023-07-31T07:44:53;25.12;44.43
69731;SHT31;56996;48.138;11.538;2023-07-31T07:47:20;25.06;44.60
69731;SHT31;56996;48.138;11.538;2023-07-31T07:49:47;25.11;44.42
69731;SHT31;56996;48.138;11.538;2023-07-31T07:52:18;25.17;44.16
69731;SHT31;56996;48.138;11.538;2023-07-31T07:54:45;25.16;44.06
69731;SHT31;56996;48.138;11.538;2023-07-31T07:57:12;25.27;44.03
69731;SHT31;56996;48.138;11.538;2023-07-31T07:59:38;25.50;43.73
69731;SHT31;56996;48.138;11.538;2023-07-31T08:02:05;25.92;43.14
69731;SHT31;56996;48.138;11.538;2023-07-31T08:04:32;26.35;42.05
69731;SHT31;56996;48.138;11.538;2023-07-31T08:06:58;27.09;41.14
69731;SHT31;56996;48.138;11.538;2023-07-31T08:09:25;27.59;40.63
69731;SHT31;56996;48.138;11.538;2023-07-31T08:11:51;28.18;39.67
69731;SHT31;56996;48.138;11.538;2023-07-31T08:14:18;28.59;38.97
69731;SHT31;56996;48.138;11.538;2023-07-31T08:16:45;28.93;38.42
69731;SHT31;56996;48.138;11.538;2023-07-31T08:19:12;29.36;37.49
69731;SHT31;56996;48.138;11.538;2023-07-31T08:21:39;29.56;37.24
69731;SHT31;56996;48.138;11.538;2023-07-31T08:24:05;29.66;36.88
69731;SHT31;56996;48.138;11.538;2023-07-31T08:26:34;29.77;36.18
69731;SHT31;56996;48.138;11.538;2023-07-31T08:29:01;29.57;35.29
69731;SHT31;56996;48.138;11.538;2023-07-31T08:31:27;29.19;35.94
69731;SHT31;56996;48.138;11.538;2023-07-31T08:33:55;28.93;36.34
69731;SHT31;56996;48.138;11.538;2023-07-31T08:36:22;28.58;36.23
69731;SHT31;56996;48.138;11.538;2023-07-31T08:38:49;28.13;37.05
69731;SHT31;56996;48.138;11.538;2023-07-31T08:41:16;27.71;37.59
69731;SHT31;56996;48.138;11.538;2023-07-31T08:43:46;27.47;37.62
69731;SHT31;56996;48.138;11.538;2023-07-31T08:46:13;27.15;37.95
69731;SHT31;56996;48.138;11.538;2023-07-31T08:48:41;26.87;38.01
69731;SHT31;56996;48.138;11.538;2023-07-31T08:51:10;26.51;38.44
69731;SHT31;56996;48.138;11.538;2023-07-31T08:53:37;26.32;38.92
69731;SHT31;56996;48.138;11.538;2023-07-31T08:56:04;26.02;39.14
69731;SHT31;56996;48.138;11.538;2023-07-31T08:58:32;25.75;39.60
69731;SHT31;56996;48.138;11.538;2023-07-31T09:01:00;25.59;40.02
69731;SHT31;56996;48.138;11.538;2023-07-31T09:03:33;25.46;40.18
69731;SHT31;56996;48.138;11.538;2023-07-31T09:06:02;25.25;40.99
69731;SHT31;56996;48.138;11.538;2023-07-31T09:08:32;25.29;41.13
69731;SHT31;56996;48.138;11.538;2023-07-31T09:11:00;25.53;40.58
69731;SHT31;56996;48.138;11.538;2023-07-31T09:13:31;26.09;39.98
69731;SHT31;56996;48.138;11.538;2023-07-31T09:15:59;26.81;38.99
69731;SHT31;56996;48.138;11.538;2023-07-31T09:18:26;27.20;38.34
69731;SHT31;56996;48.138;11.538;2023-07-31T09:21:05;27.44;37.84
69731;SHT31;56996;48.138;11.538;2023-07-31T09:23:43;27.67;37.61
69731;SHT31;56996;48.138;11.538;2023-07-31T09:26:11;27.80;37.25
69731;SHT31;56996;48.138;11.538;2023-07-31T09:28:56;27.84;37.09
69731;SHT31;56996;48.138;11.538;2023-07-31T09:31:34;28.26;36.69
69731;SHT31;56996;48.138;11.538;2023-07-31T09:34:08;28.46;36.43
69731;SHT31;56996;48.138;11.538;2023-07-31T09:36:48;28.63;36.00
69731;SHT31;56996;48.138;11.538;2023-07-31T09:39:17;28.88;35.87
69731;SHT31;56996;48.138;11.538;2023-07-31T09:41:55;29.26;35.14
69731;SHT31;56996;48.138;11.538;2023-07-31T09:44:37;29.70;34.63
69731;SHT31;56996;48.138;11.538;2023-07-31T09:47:06;30.19;33.92
69731;SHT31;56996;48.138;11.538;2023-07-31T09:49:32;30.80;32.78
69731;SHT31;56996;48.138;11.538;2023-07-31T09:51:59;30.63;32.64
69731;SHT31;56996;48.138;11.538;2023-07-31T09:54:26;29.97;32.75
69731;SHT31;56996;48.138;11.538;2023-07-31T09:56:53;29.65;33.34
69731;SHT31;56996;48.138;11.538;2023-07-31T09:59:21;29.42;33.73
69731;SHT31;56996;48.138;11.538;2023-07-31T10:01:50;29.48;33.98
69731;SHT31;56996;48.138;11.538;2023-07-31T10:04:18;29.59;33.64
69731;SHT31;56996;48.138;11.538;2023-07-31T10:06:52;29.33;33.62
69731;SHT31;56996;48.138;11.538;2023-07-31T10:09:20;28.98;34.08
69731;SHT31;56996;48.138;11.538;2023-07-31T10:11:55;28.88;34.15
69731;SHT31;56996;48.138;11.538;2023-07-31T10:14:26;28.90;34.33
69731;SHT31;56996;48.138;11.538;2023-07-31T10:16:55;28.97;34.06
69731;SHT31;56996;48.138;11.538;2023-07-31T10:19:23;28.95;33.94
69731;SHT31;56996;48.138;11.538;2023-07-31T10:21:51;28.74;34.37
69731;SHT31;56996;48.138;11.538;2023-07-31T10:24:18;28.62;34.37
69731;SHT31;56996;48.138;11.538;2023-07-31T10:26:46;28.56;34.47
69731;SHT31;56996;48.138;11.538;2023-07-31T10:29:15;28.45;34.53
69731;SHT31;56996;48.138;11.538;2023-07-31T10:31:44;28.47;34.64
69731;SHT31;56996;48.138;11.538;2023-07-31T10:34:13;28.44;34.30
69731;SHT31;56996;48.138;11.538;2023-07-31T10:36:40;28.21;34.03
69731;SHT31;56996;48.138;11.538;2023-07-31T10:39:33;28.15;33.95
69731;SHT31;56996;48.138;11.538;2023-07-31T10:42:12;28.12;34.15
69731;SHT31;56996;48.138;11.538;2023-07-31T10:44:46;28.28;34.30
69731;SHT31;56996;48.138;11.538;2023-07-31T10:47:17;28.48;34.16
69731;SHT31;56996;48.138;11.538;2023-07-31T10:49:44;28.42;34.09
69731;SHT31;56996;48.138;11.538;2023-07-31T10:52:13;28.34;34.33
69731;SHT31;56996;48.138;11.538;2023-07-31T10:54:40;28.38;34.05
69731;SHT31;56996;48.138;11.538;2023-07-31T10:57:18;28.26;34.11
69731;SHT31;56996;48.138;11.538;2023-07-31T10:59:49;28.11;33.93
69731;SHT31;56996;48.138;11.538;2023-07-31T11:02:23;27.82;33.84
69731;SHT31;56996;48.138;11.538;2023-07-31T11:05:05;27.81;34.11
69731;SHT31;56996;48.138;11.538;2023-07-31T11:08:07;27.86;34.02
69731;SHT31;56996;48.138;11.538;2023-07-31T11:10:37;27.72;34.51
69731;SHT31;56996;48.138;11.538;2023-07-31T11:13:04;27.58;34.76
69731;SHT31;56996;48.138;11.538;2023-07-31T11:15:32;27.52;35.20
69731;SHT31;56996;48.138;11.538;2023-07-31T11:17:59;27.56;35.01
69731;SHT31;56996;48.138;11.538;2023-07-31T11:20:30;27.55;35.01
69731;SHT31;56996;48.138;11.538;2023-07-31T11:22:58;27.42;34.82
69731;SHT31;56996;48.138;11.538;2023-07-31T11:25:29;27.45;34.67
69731;SHT31;56996;48.138;11.538;2023-07-31T11:28:01;27.59;34.35
69731;SHT31;56996;48.138;11.538;2023-07-31T11:30:43;27.59;33.93
69731;SHT31;56996;48.138;11.538;2023-07-31T11:33:11;27.54;34.24
69731;SHT31;56996;48.138;11.538;2023-07-31T11:35:46;27.52;34.30
69731;SHT31;56996;48.138;11.538;2023-07-31T11:38:28;27.41;34.35
69731;SHT31;56996;48.138;11.538;2023-07-31T11:41:01;27.20;34.58
69731;SHT31;56996;48.138;11.538;2023-07-31T11:43:31;26.98;35.12
69731;SHT31;56996;48.138;11.538;2023-07-31T11:45:58;26.86;35.14
69731;SHT31;56996;48.138;11.538;2023-07-31T11:48:30;26.77;35.59
69731;SHT31;56996;48.138;11.538;2023-07-31T11:51:03;26.87;35.55
69731;SHT31;56996;48.138;11.538;2023-07-31T11:56:10;27.06;35.57
69731;SHT31;56996;48.138;11.538;2023-07-31T11:58:40;27.04;35.42
69731;SHT31;56996;48.138;11.538;2023-07-31T12:01:09;26.99;35.08
69731;SHT31;56996;48.138;11.538;2023-07-31T12:03:36;26.99;34.93
69731;SHT31;56996;48.138;11.538;2023-07-31T12:06:05;26.96;35.02
69731;SHT31;56996;48.138;11.538;2023-07-31T12:08:31;26.96;35.14
69731;SHT31;56996;48.138;11.538;2023-07-31T12:11:02;27.00;35.00
69731;SHT31;56996;48.138;11.538;2023-07-31T12:13:32;27.10;34.37
69731;SHT31;56996;48.138;11.538;2023-07-31T12:16:00;27.13;34.31
69731;SHT31;56996;48.138;11.538;2023-07-31T12:18:36;27.20;34.25
69731;SHT31;56996;48.138;11.538;2023-07-31T12:21:05;27.23;34.22
69731;SHT31;56996;48.138;11.538;2023-07-31T12:23:35;27.23;34.04
69731;SHT31;56996;48.138;11.538;2023-07-31T12:26:10;27.30;33.55
69731;SHT31;56996;48.138;11.538;2023-07-31T12:28:40;27.38;33.28
69731;SHT31;56996;48.138;11.538;2023-07-31T12:31:11;27.33;33.43
69731;SHT31;56996;48.138;11.538;2023-07-31T12:33:41;27.29;33.73
69731;SHT31;56996;48.138;11.538;2023-07-31T12:36:12;27.18;34.03
69731;SHT31;56996;48.138;11.538;2023-07-31T12:38:42;27.10;34.11
69731;SHT31;56996;48.138;11.538;2023-07-31T12:41:09;27.03;34.16
69731;SHT31;56996;48.138;11.538;2023-07-31T12:43:37;27.04;34.35
69731;SHT31;56996;48.138;11.538;2023-07-31T12:46:06;27.03;34.36
69731;SHT31;56996;48.138;11.538;2023-07-31T12:48:37;27.08;34.45
69731;SHT31;56996;48.138;11.538;2023-07-31T12:51:05;27.13;34.56
69731;SHT31;56996;48.138;11.538;2023-07-31T12:53:35;27.33;34.53
69731;SHT31;56996;48.138;11.538;2023-07-31T12:56:02;27.45;34.17
69731;SHT31;56996;48.138;11.538;2023-07-31T12:58:30;27.55;34.51
69731;SHT31;56996;48.138;11.538;2023-07-31T13:00:57;27.69;34.70
69731;SHT31;56996;48.138;11.538;2023-07-31T13:03:23;27.78;34.84
69731;SHT31;56996;48.138;11.538;2023-07-31T13:05:50;27.77;34.71
69731;SHT31;56996;48.138;11.538;2023-07-31T13:08:19;27.87;34.61
69731;SHT31;56996;48.138;11.538;2023-07-31T13:10:46;28.08;34.06
69731;SHT31;56996;48.138;11.538;2023-07-31T13:13:13;28.27;34.08
69731;SHT31;56996;48.138;11.538;2023-07-31T13:15:39;28.27;34.03
69731;SHT31;56996;48.138;11.538;2023-07-31T13:18:06;28.22;34.21
69731;SHT31;56996;48.138;11.538;2023-07-31T13:20:33;28.15;34.04
69731;SHT31;56996;48.138;11.538;2023-07-31T13:22:59;28.19;33.71
69731;SHT31;56996;48.138;11.538;2023-07-31T13:25:26;28.10;33.74
69731;SHT31;56996;48.138;11.538;2023-07-31T13:27:53;28.19;33.31
69731;SHT31;56996;48.138;11.538;2023-07-31T13:30:21;28.23;32.81
69731;SHT31;56996;48.138;11.538;2023-07-31T13:32:48;28.39;32.91
69731;SHT31;56996;48.138;11.538;2023-07-31T13:35:15;28.63;32.53
69731;SHT31;56996;48.138;11.538;2023-07-31T13:37:42;28.79;32.38
69731;SHT31;56996;48.138;11.538;2023-07-31T13:40:08;28.97;32.46
69731;SHT31;56996;48.138;11.538;2023-07-31T13:42:36;29.12;32.16
69731;SHT31;56996;48.138;11.538;2023-07-31T13:45:02;29.04;31.79
69731;SHT31;56996;48.138;11.538;2023-07-31T13:47:33;28.72;32.13
69731;SHT31;56996;48.138;11.538;2023-07-31T13:50:01;28.66;32.52
69731;SHT31;56996;48.138;11.538;2023-07-31T13:52:28;28.74;32.57
69731;SHT31;56996;48.138;11.538;2023-07-31T13:54:54;28.77;32.66
69731;SHT31;56996;48.138;11.538;2023-07-31T13:57:21;28.64;32.78
69731;SHT31;56996;48.138;11.538;2023-07-31T13:59:50;28.39;33.19
69731;SHT31;56996;48.138;11.538;2023-07-31T14:02:17;28.32;33.46
69731;SHT31;56996;48.138;11.538;2023-07-31T14:04:43;28.19;33.44
69731;SHT31;56996;48.138;11.538;2023-07-31T14:07:10;28.17;33.29
69731;SHT31;56996;48.138;11.538;2023-07-31T14:09:37;28.28;33.18
69731;SHT31;56996;48.138;11.538;2023-07-31T14:12:04;28.37;32.69
69731;SHT31;56996;48.138;11.538;2023-07-31T14:14:31;28.35;32.26
69731;SHT31;56996;48.138;11.538;2023-07-31T14:17:00;28.25;32.14
69731;SHT31;56996;48.138;11.538;2023-07-31T14:19:28;28.24;32.24
69731;SHT31;56996;48.138;11.538;2023-07-31T14:21:57;28.26;32.46
69731;SHT31;56996;48.138;11.538;2023-07-31T14:24:37;28.22;32.61
69731;SHT31;56996;48.138;11.538;2023-07-31T14:27:04;28.11;32.68
69731;SHT31;56996;48.138;11.538;2023-07-31T14:29:31;27.92;33.41
69731;SHT31;56996;48.138;11.538;2023-07-31T14:31:58;27.83;33.90
69731;SHT31;56996;48.138;11.538;2023-07-31T14:34:26;27.89;33.78
69731;SHT31;56996;48.138;11.538;2023-07-31T14:36:53;28.08;33.21
69731;SHT31;56996;48.138;11.538;2023-07-31T14:39:20;28.31;33.00
69731;SHT31;56996;48.138;11.538;2023-07-31T14:41:46;28.38;32.79
69731;SHT31;56996;48.138;11.538;2023-07-31T14:44:14;28.42;32.82
69731;SHT31;56996;48.138;11.538;2023-07-31T14:46:41;28.28;32.82
69731;SHT31;56996;48.138;11.538;2023-07-31T14:49:08;28.15;33.24
69731;SHT31;56996;48.138;11.538;2023-07-31T14:51:35;28.05;33.52
69731;SHT31;56996;48.138;11.538;2023-07-31T14:54:02;27.98;33.81
69731;SHT31;56996;48.138;11.538;2023-07-31T14:56:28;27.97;34.18
69731;SHT31;56996;48.138;11.538;2023-07-31T14:58:55;27.92;33.81
69731;SHT31;56996;48.138;11.538;2023-07-31T15:01:23;27.81;33.73
69731;SHT31;56996;48.138;11.538;2023-07-31T15:03:50;27.72;33.57
69731;SHT31;56996;48.138;11.538;2023-07-31T15:06:17;27.74;33.63
69731;SHT31;56996;48.138;11.538;2023-07-31T15:08:44;27.78;33.41
69731;SHT31;56996;48.138;11.538;2023-07-31T15:11:10;27.81;33.55
69731;SHT31;56996;48.138;11.538;2023-07-31T15:13:37;27.78;33.52
69731;SHT31;56996;48.138;11.538;2023-07-31T15:16:04;27.68;33.91
69731;SHT31;56996;48.138;11.538;2023-07-31T15:18:31;27.68;33.93
69731;SHT31;56996;48.138;11.538;2023-07-31T15:20:57;27.64;33.96
69731;SHT31;56996;48.138;11.538;2023-07-31T15:23:24;27.50;34.06
69731;SHT31;56996;48.138;11.538;2023-07-31T15:25:52;27.46;34.24